Time;durP1;ratioP1;P1;durP2;ratioP2;P2;SDS_P1;SDS_P2;PMS_P1;PMS_P2;Temp;Humidity;BMP_temperature;BMP_pressure;BME280_temperature;BME280_humidity;BME280_pressure;Samples;Min_cycle;Max_cycle;Signal;HPM_P1;HPM_P2
2022/04/06 00:00:42;;;;;;;5.88;4.03;;;;;;;10.61;73.89;99207.47;1087597;54;20042;-80
2022/04/06 00:01:47;;;;;;;5.32;3.63;;;;;;;10.58;74.13;99203.31;1087845;54;20042;-80
2022/04/06 00:02:49;;;;;;;5.80;3.67;;;;;;;10.58;74.20;99197.97;1088836;39;20547;-79
2022/04/06 00:03:54;;;;;;;5.40;3.42;;;;;;;10.55;74.40;99194.78;1087725;54;20030;-80
2022/04/06 00:05:00;;;;;;;6.35;3.83;;;;;;;10.57;73.92;99198.13;1088071;54;20039;-79
2022/04/06 00:06:01;;;;;;;5.97;3.45;;;;;;;10.61;74.11;99199.47;1087826;54;20050;-79
2022/04/06 00:07:06;;;;;;;5.80;3.15;;;;;;;10.74;73.81;99196.28;1087600;54;20107;-80
2022/04/06 00:08:08;;;;;;;5.50;3.17;;;;;;;10.84;73.08;99198.81;1088089;54;20046;-79
2022/04/06 07:01:08;;;;;;;8.00;3.53;;;;;;;10.54;74.90;99006.88;1089677;46;20113;-80
2022/04/06 07:02:12;;;;;;;6.43;3.53;;;;;;;10.67;74.90;98998.34;1088915;39;20606;-81
2022/04/06 07:03:16;;;;;;;7.20;3.80;;;;;;;10.75;74.42;98994.78;1087994;54;20026;-81
2022/04/06 07:04:18;;;;;;;6.00;3.65;;;;;;;10.91;73.95;98988.56;1087907;54;20038;-80
2022/04/06 07:05:24;;;;;;;6.20;4.07;;;;;;;10.95;74.20;98983.69;1087889;54;20034;-79
2022/04/06 07:06:28;;;;;;;7.50;5.05;;;;;;;11.00;73.75;98990.19;1087981;54;20053;-81
2022/04/06 07:07:30;;;;;;;10.10;5.55;;;;;;;11.02;73.76;98993.53;1087925;54;20046;-80
2022/04/06 07:08:34;;;;;;;11.65;7.03;;;;;;;10.92;73.94;98990.22;1087862;54;20812;-80
2022/04/06 07:09:38;;;;;;;9.90;6.28;;;;;;;11.00;73.54;98992.06;1087901;54;20033;-80
2022/04/06 07:10:44;;;;;;;10.45;5.43;;;;;;;10.87;73.86;98989.91;1088139;54;20023;-80
2022/04/06 07:11:48;;;;;;;8.35;4.75;;;;;;;10.95;74.00;98984.56;1089127;47;20026;-81
2022/04/06 07:12:50;;;;;;;8.00;4.35;;;;;;;10.96;73.55;98991.53;1089181;47;20022;-79
2022/04/06 07:13:54;;;;;;;7.85;4.65;;;;;;;10.96;73.87;98990.72;1088210;54;20018;-79
2022/04/06 07:14:56;;;;;;;6.95;4.07;;;;;;;11.00;73.46;98992.06;1088853;47;20022;-78
2022/04/06 07:16:00;;;;;;;7.15;3.92;;;;;;;11.11;73.46;98988.16;1090014;47;20034;-79
2022/04/06 07:17:08;;;;;;;8.80;4.18;;;;;;;11.15;72.87;98992.13;1087989;47;20057;-80
2022/04/06 07:18:11;;;;;;;6.20;3.85;;;;;;;11.20;72.75;98995.13;1091474;46;20038;-80
2022/04/06 07:19:16;;;;;;;7.10;3.53;;;;;;;11.25;72.79;98992.75;1088240;54;20030;-80
2022/04/06 07:20:18;;;;;;;5.97;3.75;;;;;;;11.23;72.42;98984.91;1088160;54;20082;-79
2022/04/06 07:21:22;;;;;;;7.43;3.80;;;;;;;11.22;72.44;98990.44;1090532;46;20034;-78
2022/04/06 07:22:24;;;;;;;6.15;3.72;;;;;;;11.16;72.31;98985.78;1088098;54;20050;-79
2022/04/06 07:23:28;;;;;;;5.20;3.03;;;;;;;11.10;72.57;98987.31;1088216;54;20065;-80
2022/04/06 07:24:32;;;;;;;7.70;3.53;;;;;;;11.15;72.37;98984.09;1088236;54;20053;-81
2022/04/06 07:25:34;;;;;;;6.07;3.22;;;;;;;11.20;72.33;98982.56;1088189;54;20042;-79
2022/04/06 07:26:38;;;;;;;6.03;3.15;;;;;;;11.32;71.71;98980.38;1088154;54;20042;-80
2022/04/06 07:27:40;;;;;;;6.15;3.22;;;;;;;11.26;71.59;98988.25;1088091;54;20035;-81
2022/04/06 07:28:44;;;;;;;5.93;3.55;;;;;;;11.44;71.48;98978.13;1088211;54;20031;-79
2022/04/06 07:29:46;;;;;;;4.85;2.72;;;;;;;11.58;70.73;98984.56;1088203;54;20046;-78
2022/04/06 07:30:50;;;;;;;4.68;2.83;;;;;;;11.58;70.70;98975.66;1088178;54;20062;-80
2022/04/06 07:31:54;;;;;;;5.13;2.85;;;;;;;11.52;70.68;98975.38;1088001;54;20069;-79
2022/04/06 07:32:58;;;;;;;6.32;2.72;;;;;;;11.64;70.22;98967.78;1088007;54;20030;-80
2022/04/06 07:34:02;;;;;;;4.68;2.58;;;;;;;11.81;69.81;98973.84;1090785;47;20109;-80
2022/04/06 07:35:05;;;;;;;8.57;3.72;;;;;;;11.73;69.02;98975.75;1094668;39;20678;-80
2022/04/06 07:36:10;;;;;;;4.43;2.47;;;;;;;11.69;68.52;98975.25;1089047;47;20084;-79
2022/04/06 07:37:11;;;;;;;4.35;2.50;;;;;;;11.68;68.20;98974.44;1088594;39;20260;-81
2022/04/06 07:38:15;;;;;;;4.47;2.42;;;;;;;11.80;68.19;98974.84;1089477;47;20078;-80
2022/04/06 07:39:17;;;;;;;5.90;2.53;;;;;;;11.80;67.84;98971.34;1088217;54;20029;-80
2022/04/06 07:40:22;;;;;;;5.25;3.40;;;;;;;11.78;66.84;98979.56;1088125;54;20037;-82
2022/04/06 07:41:27;;;;;;;4.40;2.80;;;;;;;11.79;66.61;98977.72;1088168;54;20054;-80
2022/04/06 07:42:28;;;;;;;6.95;3.10;;;;;;;11.96;66.19;98967.69;1088072;54;20694;-80
2022/04/06 07:43:33;;;;;;;4.53;2.10;;;;;;;12.05;66.14;98973.84;1095376;39;20582;-80
2022/04/06 07:44:35;;;;;;;8.45;2.35;;;;;;;11.99;64.88;98972.72;1088185;54;20061;-80
2022/04/06 07:45:40;;;;;;;5.28;2.13;;;;;;;11.86;63.73;98970.63;1092803;39;20606;-79
2022/04/06 07:46:41;;;;;;;4.07;1.80;;;;;;;12.00;63.49;98971.72;1089016;39;20730;-79
2022/04/06 07:47:46;;;;;;;5.03;1.92;;;;;;;12.16;63.51;98976.94;1088060;54;20050;-80
2022/04/06 07:48:53;;;;;;;4.70;2.03;;;;;;;12.15;63.41;98980.63;1088133;54;20057;-79
2022/04/06 07:49:55;;;;;;;4.28;1.95;;;;;;;12.24;63.30;98973.34;1087739;54;20035;-81
2022/04/06 07:50:59;;;;;;;4.05;1.90;;;;;;;12.33;63.15;98977.63;1087728;54;20030;-80
2022/04/06 07:52:04;;;;;;;7.15;2.10;;;;;;;12.08;62.77;98968.16;1088056;54;20038;-80
2022/04/06 07:53:05;;;;;;;4.32;2.10;;;;;;;12.01;62.84;98974.22;1088678;47;20023;-79
2022/04/06 07:54:10;;;;;;;6.25;2.58;;;;;;;12.01;63.06;98968.84;1088089;54;20026;-80
2022/04/06 07:55:12;;;;;;;4.72;2.30;;;;;;;11.99;63.19;98968.22;1089623;47;20034;-79
2022/04/06 07:56:16;;;;;;;4.40;2.20;;;;;;;12.11;63.00;98968.63;1088116;54;20043;-81
2022/04/06 07:57:20;;;;;;;6.35;2.25;;;;;;;11.97;62.74;98966.69;1088566;39;20610;-80
2022/04/06 07:58:24;;;;;;;3.80;1.85;;;;;;;11.91;62.83;98965.56;1088979;47;20018;-80
2022/04/06 07:59:26;;;;;;;4.03;2.63;;;;;;;11.91;63.30;98968.22;1088064;54;20015;-80
2022/04/06 08:00:33;;;;;;;3.90;2.15;;;;;;;12.15;62.71;98972.59;1088061;54;20023;-80
2022/04/06 08:01:34;;;;;;;3.95;2.17;;;;;;;12.26;62.50;98970.47;1087775;54;20037;-81
2022/04/06 08:02:39;;;;;;;3.47;1.67;;;;;;;12.04;62.63;98966.84;1088096;54;20095;-79
2022/04/06 08:03:43;;;;;;;5.97;2.38;;;;;;;12.02;63.01;98965.16;1088044;54;20710;-80
2022/04/06 08:04:47;;;;;;;3.65;1.83;;;;;;;11.91;62.54;98970.09;1088155;54;20037;-80
2022/04/06 08:05:51;;;;;;;6.10;1.92;;;;;;;11.92;62.55;98964.53;1088036;54;20086;-80
2022/04/06 08:06:53;;;;;;;4.35;2.15;;;;;;;11.93;62.99;98973.44;1087640;54;20041;-80
2022/04/06 08:07:58;;;;;;;6.88;2.45;;;;;;;12.02;62.51;98962.50;1087914;54;20054;-80
2022/04/06 08:08:59;;;;;;;7.78;2.40;;;;;;;12.14;62.35;98962.06;1088119;54;20061;-80
2022/04/06 08:10:03;;;;;;;5.05;2.47;;;;;;;12.21;62.05;98965.66;1088067;54;20042;-80
2022/04/06 08:11:08;;;;;;;5.63;2.10;;;;;;;12.27;61.66;98973.00;1088102;54;20058;-80
2022/04/06 08:12:10;;;;;;;4.03;2.00;;;;;;;12.15;61.55;98975.25;1088117;54;20094;-81
2022/04/06 08:13:14;;;;;;;4.45;1.95;;;;;;;12.10;61.41;98966.94;1088074;54;20744;-79
2022/04/06 08:14:16;;;;;;;4.53;1.85;;;;;;;12.23;61.16;98966.31;1088058;54;20046;-80
2022/04/06 08:15:20;;;;;;;4.75;2.20;;;;;;;12.08;61.12;98962.78;1088080;54;20031;-80
2022/04/06 08:16:24;;;;;;;4.32;2.38;;;;;;;12.06;61.21;98972.84;1088082;54;20018;-81
2022/04/06 08:17:26;;;;;;;4.32;2.00;;;;;;;12.09;60.44;98959.09;1088089;54;20022;-80
2022/04/06 08:18:31;;;;;;;4.22;2.00;;;;;;;12.16;60.22;98963.53;1091591;47;20053;-80
2022/04/06 08:19:32;;;;;;;4.25;1.85;;;;;;;12.20;60.07;98960.50;1089424;39;20657;-81
2022/04/06 08:20:39;;;;;;;4.13;1.90;;;;;;;12.13;59.78;98961.25;1088047;54;20111;-79
2022/04/06 08:21:41;;;;;;;4.32;2.38;;;;;;;12.19;60.20;98965.00;1089258;47;20041;-80
2022/04/06 08:22:48;;;;;;;4.72;2.05;;;;;;;12.36;59.98;98965.69;1090049;47;20042;-80
2022/04/06 08:23:52;;;;;;;4.65;1.65;;;;;;;12.42;59.76;98969.50;1087644;54;20384;-79
2022/04/06 08:24:53;;;;;;;3.30;1.50;;;;;;;12.54;59.53;98968.03;1090865;39;20669;-79
2022/04/06 08:25:58;;;;;;;3.92;1.80;;;;;;;12.52;59.86;98963.84;1087990;54;20051;-80
2022/04/06 08:27:00;;;;;;;5.07;1.80;;;;;;;12.46;59.70;98965.44;1088070;54;20039;-81
2022/04/06 08:28:07;;;;;;;3.90;1.70;;;;;;;12.21;59.08;98963.00;1092076;39;20186;-80
2022/04/06 08:29:09;;;;;;;4.35;1.98;;;;;;;12.28;59.14;98968.47;1088438;54;20034;-80
2022/04/06 08:30:16;;;;;;;4.25;1.80;;;;;;;12.32;59.01;98965.22;1088333;54;20030;-80
2022/04/06 08:31:18;;;;;;;3.50;1.65;;;;;;;12.38;59.14;98965.50;1088447;54;20015;-81
2022/04/06 08:32:22;;;;;;;4.38;1.95;;;;;;;12.27;58.60;98956.91;1088411;54;20026;-80
2022/04/06 08:33:26;;;;;;;3.83;1.80;;;;;;;12.43;58.80;98968.47;1088389;54;20094;-80
2022/04/06 08:34:28;;;;;;;3.88;1.63;;;;;;;12.25;58.71;98969.66;1088428;54;20038;-80
2022/04/06 08:35:32;;;;;;;6.47;2.03;;;;;;;12.28;58.89;98973.81;1088453;54;20026;-80
2022/04/06 08:36:36;;;;;;;4.47;2.17;;;;;;;12.25;58.68;98963.44;1088471;54;20034;-80
2022/04/06 08:37:41;;;;;;;5.70;2.75;;;;;;;12.24;58.81;98962.63;1088456;54;20046;-80
2022/04/06 08:38:45;;;;;;;5.45;2.78;;;;;;;12.21;58.42;98968.34;1088402;54;20022;-80
2022/04/06 08:39:46;;;;;;;5.20;2.70;;;;;;;12.25;58.46;98963.44;1088186;54;20053;-80
2022/04/06 08:40:51;;;;;;;4.90;2.45;;;;;;;12.52;58.28;98967.38;1087968;54;20078;-79
2022/04/06 08:41:54;;;;;;;5.60;2.15;;;;;;;12.35;58.03;98965.88;1088447;54;20023;-79
2022/04/06 08:42:59;;;;;;;4.20;2.08;;;;;;;12.39;58.39;98961.81;1088390;54;20030;-80
2022/04/06 08:44:03;;;;;;;5.85;2.30;;;;;;;12.48;58.27;98963.38;1088373;54;20033;-81
2022/04/06 08:45:06;;;;;;;5.90;1.98;;;;;;;12.44;58.43;98956.75;1088421;54;20741;-80
2022/04/06 08:46:12;;;;;;;5.38;1.92;;;;;;;12.39;58.47;98964.50;1088510;54;20041;-81
2022/04/06 08:47:14;;;;;;;4.20;1.95;;;;;;;12.48;58.02;98960.72;1088416;54;20038;-80
2022/04/06 08:48:19;;;;;;;4.97;2.20;;;;;;;12.70;58.03;98947.41;1088369;54;20030;-80
2022/04/06 08:49:23;;;;;;;4.32;1.80;;;;;;;12.61;57.61;98954.72;1088437;54;20015;-80
2022/04/06 08:50:30;;;;;;;4.03;2.22;;;;;;;12.59;58.07;98952.22;1088353;54;20026;-79
2022/04/06 08:51:36;;;;;;;10.07;2.58;;;;;;;12.55;58.30;98953.63;1088394;54;20734;-79
2022/04/06 08:52:41;;;;;;;4.07;1.80;;;;;;;12.53;58.10;98950.28;1092276;46;20055;-81
2022/04/06 08:53:46;;;;;;;3.60;1.75;;;;;;;12.55;57.93;98952.78;1088440;54;20019;-80
2022/04/06 08:54:47;;;;;;;5.45;1.85;;;;;;;12.57;57.64;98956.91;1088415;54;20037;-79
2022/04/06 08:55:51;;;;;;;6.10;2.13;;;;;;;12.48;57.68;98955.34;1088735;46;20018;-80
2022/04/06 08:56:55;;;;;;;4.30;2.00;;;;;;;12.42;57.94;98959.59;1088063;54;20030;-81
2022/04/06 08:58:00;;;;;;;4.22;2.20;;;;;;;12.28;57.46;98958.56;1088267;54;20015;-81
2022/04/06 08:59:05;;;;;;;4.43;2.30;;;;;;;12.31;58.01;98963.56;1088385;54;20046;-79
2022/04/06 09:00:12;;;;;;;4.78;2.08;;;;;;;12.15;58.02;98959.19;1088412;54;20019;-81
2022/04/06 09:01:14;;;;;;;5.13;1.85;;;;;;;12.15;58.06;98959.19;1088447;54;20034;-80
2022/04/06 09:02:22;;;;;;;4.68;2.03;;;;;;;12.23;58.30;98960.16;1088183;46;20812;-79
2022/04/06 09:03:27;;;;;;;4.20;2.10;;;;;;;12.32;57.87;98957.19;1088416;54;20034;-80
2022/04/06 09:04:34;;;;;;;4.65;2.00;;;;;;;12.18;57.92;98958.00;1090659;46;20034;-81
2022/04/06 09:05:39;;;;;;;4.70;1.70;;;;;;;12.19;57.78;98956.97;1088525;54;20042;-81
2022/04/06 09:06:44;;;;;;;4.03;2.15;;;;;;;12.25;57.95;98961.63;1088442;54;20038;-81
2022/04/06 09:07:51;;;;;;;3.72;2.15;;;;;;;12.44;57.70;98957.56;1088404;54;20025;-79
2022/04/06 09:08:53;;;;;;;3.67;1.90;;;;;;;12.37;57.90;98963.88;1088463;47;20030;-81
2022/04/06 09:09:59;;;;;;;5.28;2.10;;;;;;;12.49;57.79;98959.69;1088398;54;20112;-80
2022/04/06 09:11:07;;;;;;;4.25;2.22;;;;;;;12.40;58.67;98967.00;1088361;54;20022;-80
2022/04/06 09:12:17;;;;;;;4.15;2.15;;;;;;;12.23;58.28;98966.31;1097590;39;20800;-80
2022/04/06 09:13:23;;;;;;;4.40;2.10;;;;;;;12.19;58.41;98961.50;1088017;54;20090;-79
2022/04/06 09:14:33;;;;;;;5.32;2.45;;;;;;;12.20;58.30;98955.97;1088161;54;20046;-79
2022/04/06 09:15:35;;;;;;;3.95;2.08;;;;;;;12.25;58.49;98968.81;1088394;54;20029;-80
2022/04/06 09:16:40;;;;;;;4.55;2.15;;;;;;;12.25;58.61;98968.81;1088347;54;20038;-81
2022/04/06 09:17:47;;;;;;;4.70;2.10;;;;;;;12.21;58.49;98959.50;1088392;54;21032;-81
2022/04/06 09:18:51;;;;;;;4.35;1.90;;;;;;;12.15;58.71;98974.44;1088406;54;20038;-81
2022/04/06 09:19:53;;;;;;;4.65;1.80;;;;;;;12.20;58.78;98965.88;1088399;54;20046;-80
2022/04/06 09:21:01;;;;;;;3.92;1.92;;;;;;;12.12;59.20;98966.75;1088315;54;20022;-80
2022/04/06 09:22:10;;;;;;;4.75;2.10;;;;;;;12.12;58.97;98964.06;1088351;54;20026;-80
2022/04/06 09:23:14;;;;;;;4.30;1.90;;;;;;;12.12;58.88;98969.44;1089244;46;20022;-80
2022/04/06 09:24:18;;;;;;;6.03;2.15;;;;;;;12.14;58.82;98967.41;1088334;54;20022;-81
2022/04/06 09:25:22;;;;;;;4.60;2.20;;;;;;;12.06;59.18;98964.81;1088372;54;20608;-80
2022/04/06 09:26:28;;;;;;;4.50;2.47;;;;;;;12.10;58.98;98960.75;1088334;54;20098;-80
2022/04/06 09:27:30;;;;;;;4.80;2.30;;;;;;;12.23;59.36;98957.47;1088399;54;20055;-79
2022/04/06 09:28:35;;;;;;;5.30;2.15;;;;;;;12.21;59.13;98963.00;1088931;46;20035;-79
2022/04/06 09:29:36;;;;;;;4.70;2.05;;;;;;;12.12;59.50;98964.94;1088059;54;20030;-80
2022/04/06 09:30:43;;;;;;;4.80;2.17;;;;;;;12.14;59.28;98964.75;1087953;54;20030;-79
2022/04/06 09:31:45;;;;;;;5.38;2.15;;;;;;;12.24;59.20;98962.63;1088352;54;20034;-80
2022/04/06 09:32:49;;;;;;;4.70;1.95;;;;;;;12.24;59.19;98959.97;1088333;54;20030;-80
2022/04/06 09:33:59;;;;;;;5.25;2.10;;;;;;;12.21;59.54;98956.81;1088334;54;20045;-80
2022/04/06 09:35:03;;;;;;;3.55;1.88;;;;;;;12.22;59.45;98963.84;1088403;54;20026;-80
2022/04/06 09:36:17;;;;;;;4.78;1.90;;;;;;;12.22;59.37;98967.34;1088523;46;20015;-80
2022/04/06 09:37:28;;;;;;;6.10;2.42;;;;;;;12.37;59.20;98972.72;1092644;31;20683;-80
2022/04/06 09:38:32;;;;;;;4.10;2.33;;;;;;;12.42;59.41;98959.59;1088231;54;20038;-80
2022/04/06 09:39:46;;;;;;;4.65;2.20;;;;;;;12.38;59.14;98966.34;1088066;54;20030;-80
2022/04/06 09:40:51;;;;;;;4.78;1.95;;;;;;;12.27;59.39;98962.28;1088253;54;20059;-80
2022/04/06 09:42:02;;;;;;;3.95;2.20;;;;;;;12.27;59.23;98956.91;1088331;54;20041;-80
2022/04/06 09:43:04;;;;;;;4.35;1.65;;;;;;;12.49;59.00;98959.69;1088230;54;20031;-80
2022/04/06 09:47:38;;;;;;;6.03;2.17;;;;;;;12.56;58.44;98949.94;1094047;39;20819;-80
2022/04/06 09:48:29;;;;;;;5.43;2.20;;;;;;;12.69;58.65;98949.28;1088403;39;20550;-79
2022/04/06 09:49:31;;;;;;;4.25;2.30;;;;;;;12.58;58.83;98941.69;1088383;46;20018;-80
2022/04/06 09:50:36;;;;;;;6.47;2.83;;;;;;;12.46;59.21;98944.00;1088120;54;20721;-81
2022/04/06 09:51:42;;;;;;;4.35;2.55;;;;;;;12.57;59.03;98945.38;1088285;54;20094;-79
2022/04/06 09:52:50;;;;;;;5.15;2.45;;;;;;;12.73;58.51;98941.69;1088327;54;20023;-80
2022/04/06 09:53:56;;;;;;;6.47;2.67;;;;;;;12.85;58.32;98940.19;1090220;46;20726;-79
2022/04/06 09:54:58;;;;;;;5.95;2.40;;;;;;;12.52;59.17;98943.25;1088426;54;20034;-80
2022/04/06 09:56:04;;;;;;;5.25;1.90;;;;;;;12.42;59.58;98937.34;1092427;39;20570;-78
2022/04/06 09:57:09;;;;;;;4.13;2.05;;;;;;;12.53;59.43;98931.53;1088284;54;20026;-80
2022/04/06 09:58:16;;;;;;;4.25;1.90;;;;;;;12.72;58.89;98932.78;1088218;54;20039;-80
2022/04/06 09:59:20;;;;;;;5.22;2.35;;;;;;;12.63;59.21;98934.75;1088339;54;20037;-81
2022/04/06 10:00:24;;;;;;;4.53;2.15;;;;;;;12.50;59.35;98931.88;1088233;54;20034;-80
2022/04/06 10:01:32;;;;;;;4.80;2.35;;;;;;;12.62;59.19;98932.25;1090663;46;20034;-80
2022/04/06 10:02:35;;;;;;;4.32;2.00;;;;;;;12.53;59.16;98928.84;1091487;46;20042;-80
2022/04/06 10:03:41;;;;;;;4.25;2.50;;;;;;;12.49;59.61;98927.53;1087804;54;20119;-80
2022/04/06 10:04:43;;;;;;;4.85;2.70;;;;;;;12.69;59.12;98926.97;1088239;54;20019;-80
2022/04/06 10:05:50;;;;;;;4.18;1.80;;;;;;;12.77;58.98;98926.88;1088280;54;20034;-80
2022/04/06 10:06:55;;;;;;;3.83;2.10;;;;;;;12.59;58.93;98921.91;1088309;54;20061;-80
2022/04/06 10:08:02;;;;;;;4.07;1.92;;;;;;;12.72;59.00;98926.63;1089093;46;20053;-80
2022/04/06 10:09:09;;;;;;;5.30;1.80;;;;;;;12.76;58.86;98918.00;1091109;46;20738;-80
2022/04/06 10:10:12;;;;;;;3.22;1.63;;;;;;;12.79;58.68;98924.84;1089204;46;20018;-79
2022/04/06 10:11:19;;;;;;;4.47;2.10;;;;;;;12.74;58.39;98909.31;1088257;54;20031;-79
2022/04/06 10:12:21;;;;;;;4.97;2.60;;;;;;;12.80;58.41;98913.09;1088322;54;20105;-80
2022/04/06 10:13:28;;;;;;;6.40;2.05;;;;;;;12.89;58.10;98913.84;1088301;54;20027;-80
2022/04/06 10:14:30;;;;;;;4.22;2.03;;;;;;;12.92;58.55;98910.75;1088260;54;20045;-80
2022/04/06 10:15:38;;;;;;;4.18;1.90;;;;;;;12.87;58.40;98911.31;1088277;54;20030;-80
2022/04/06 10:16:40;;;;;;;4.53;2.10;;;;;;;12.65;58.51;98910.44;1088284;54;20038;-80
2022/04/06 10:17:44;;;;;;;4.85;2.42;;;;;;;12.73;58.32;98906.84;1089443;39;20623;-80
2022/04/06 10:18:46;;;;;;;5.53;2.00;;;;;;;12.74;58.64;98911.19;1088794;46;20042;-79
2022/04/06 10:19:56;;;;;;;3.75;1.73;;;;;;;12.92;58.04;98900.88;1087957;54;20034;-79
2022/04/06 10:21:07;;;;;;;4.23;2.10;;;;;;;13.03;58.04;98904.09;1092795;46;20058;-80
2022/04/06 10:22:18;;;;;;;4.72;2.00;;;;;;;13.05;57.53;98897.53;1088322;54;20037;-79
2022/04/06 10:23:41;;;;;;;4.93;2.45;;;;;;;12.82;58.09;98900.34;1088263;54;20041;-80
2022/04/06 10:24:58;;;;;;;4.93;2.17;;;;;;;12.88;57.90;98904.13;1088223;54;20050;-80
2022/04/06 10:26:09;;;;;;;5.00;1.92;;;;;;;12.87;58.28;98905.16;1088458;47;20693;-80
2022/04/06 10:27:21;;;;;;;5.72;1.85;;;;;;;12.78;58.29;98899.03;1091917;46;20034;-80
2022/04/06 10:28:26;;;;;;;4.45;1.90;;;;;;;12.68;58.51;98902.03;1088196;54;20023;-79
2022/04/06 10:29:27;;;;;;;4.63;1.95;;;;;;;12.80;58.46;98886.28;1089643;46;20014;-80
2022/04/06 10:30:32;;;;;;;4.10;1.75;;;;;;;12.83;58.57;98890.44;1088185;54;20042;-79
2022/04/06 10:31:34;;;;;;;5.03;1.77;;;;;;;13.04;58.01;98893.16;1089068;46;20015;-80
2022/04/06 10:32:40;;;;;;;3.72;1.90;;;;;;;13.09;58.14;98892.59;1088280;54;20030;-81
2022/04/06 10:33:41;;;;;;;3.60;1.58;;;;;;;13.19;57.78;98881.56;1088249;54;20037;-79
2022/04/06 10:34:45;;;;;;;5.35;2.08;;;;;;;13.15;57.98;98883.78;1088276;54;20083;-79
2022/04/06 10:35:47;;;;;;;3.42;1.73;;;;;;;13.32;57.67;98880.88;1088177;54;20734;-79
2022/04/06 10:37:10;;;;;;;4.10;1.92;;;;;;;13.45;57.43;98881.03;1087919;54;20031;-79
2022/04/06 10:38:20;;;;;;;3.60;1.40;;;;;;;13.53;57.29;98874.72;1088257;54;20018;-80
2022/04/06 10:39:30;;;;;;;3.53;1.60;;;;;;;13.51;57.08;98872.19;1088279;54;20314;-80
2022/04/06 10:41:00;;;;;;;3.75;1.95;;;;;;;13.61;57.10;98871.03;1088227;54;20018;-81
2022/04/06 10:42:16;;;;;;;4.10;1.27;;;;;;;13.64;57.06;98876.03;1088290;54;20026;-80
2022/04/06 10:43:50;;;;;;;5.47;1.92;;;;;;;13.33;57.38;98864.56;1088168;54;20034;-79
2022/04/06 10:44:55;;;;;;;4.00;1.83;;;;;;;13.29;58.03;98862.47;1088299;54;20094;-80
2022/04/06 10:45:58;;;;;;;4.00;1.80;;;;;;;13.57;57.36;98868.75;1088222;54;20075;-80
2022/04/06 10:47:09;;;;;;;3.78;1.70;;;;;;;13.77;56.51;98860.03;1088569;46;20042;-79
2022/04/06 10:48:18;;;;;;;4.05;1.83;;;;;;;13.61;57.05;98865.66;1088204;54;20050;-79
2022/04/06 10:49:20;;;;;;;4.55;1.70;;;;;;;13.48;57.46;98859.19;1088292;54;20046;-80
2022/04/06 10:50:26;;;;;;;3.88;1.77;;;;;;;13.43;56.74;98853.53;1088183;54;20014;-80
2022/04/06 10:51:30;;;;;;;3.88;1.80;;;;;;;13.51;55.74;98856.09;1088207;54;20027;-80
2022/04/06 10:52:34;;;;;;;4.82;1.80;;;;;;;13.42;54.86;98849.19;1088133;54;20119;-80
2022/04/06 10:53:36;;;;;;;3.25;1.70;;;;;;;13.62;54.89;98851.22;1090153;46;20041;-82
2022/04/06 10:54:48;;;;;;;3.50;1.52;;;;;;;13.97;54.26;98848.63;1088311;54;20034;-79
2022/04/06 10:55:59;;;;;;;3.00;1.30;;;;;;;13.99;53.55;98835.78;1088264;54;20045;-80
2022/04/06 10:57:01;;;;;;;4.78;1.63;;;;;;;13.98;53.90;98836.84;1092152;46;20050;-80
2022/04/06 10:58:07;;;;;;;2.85;1.40;;;;;;;14.20;53.86;98842.97;1088215;54;20042;-80
2022/04/06 10:59:11;;;;;;;3.10;1.40;;;;;;;14.20;52.92;98833.03;1088258;54;20015;-79
2022/04/06 11:00:18;;;;;;;3.88;1.67;;;;;;;14.02;53.16;98843.47;1088173;54;20334;-80
2022/04/06 11:01:26;;;;;;;4.00;1.67;;;;;;;14.13;53.40;98845.63;1090000;46;20038;-80
2022/04/06 11:02:36;;;;;;;3.50;1.60;;;;;;;14.22;53.31;98835.50;1088213;54;20038;-81
2022/04/06 11:03:41;;;;;;;5.03;1.60;;;;;;;14.16;53.43;98833.63;1088135;54;20038;-80
2022/04/06 11:04:45;;;;;;;5.72;1.85;;;;;;;14.18;53.36;98835.09;1088810;46;20058;-81
2022/04/06 11:05:52;;;;;;;4.13;2.30;;;;;;;14.15;53.51;98835.50;1088207;54;20714;-81
2022/04/06 11:06:56;;;;;;;5.65;1.80;;;;;;;14.11;53.09;98834.22;1088175;54;20027;-79
2022/04/06 11:10:43;;;;;;;3.70;1.88;;;;;;;14.07;53.28;98829.44;1087568;54;20038;-81
2022/04/06 11:11:46;;;;;;;4.75;1.92;;;;;;;14.06;53.67;98825.09;1088177;54;20111;-80
2022/04/06 11:13:06;;;;;;;6.60;3.83;;;;;;;13.88;53.64;98827.28;1088853;39;20622;-81
2022/04/06 11:14:07;;;;;;;3.90;2.00;;;;;;;14.12;53.51;98835.06;1088189;54;20030;-81
2022/04/06 11:15:21;;;;;;;6.05;2.10;;;;;;;14.18;53.66;98827.03;1088163;54;20030;-80
2022/04/06 11:16:48;;;;;;;4.15;1.95;;;;;;;14.20;53.45;98826.84;1088243;54;20055;-80
2022/04/06 11:17:53;;;;;;;4.25;1.70;;;;;;;14.37;53.56;98821.94;1088161;54;20030;-79
2022/04/06 11:18:57;;;;;;;4.38;2.05;;;;;;;14.38;53.58;98820.13;1088124;54;20026;-80
2022/04/06 11:20:01;;;;;;;4.03;1.80;;;;;;;14.61;53.35;98814.41;1088139;54;20031;-80
2022/04/06 11:21:07;;;;;;;3.60;1.80;;;;;;;14.50;53.58;98822.03;1088400;47;20018;-81
2022/04/06 11:22:16;;;;;;;4.85;1.90;;;;;;;14.44;53.86;98809.41;1088161;54;20049;-79
2022/04/06 11:23:17;;;;;;;4.72;2.10;;;;;;;14.36;53.97;98814.91;1089703;39;20618;-79
2022/04/06 11:24:24;;;;;;;3.92;2.15;;;;;;;14.47;54.05;98811.66;1088464;47;20033;-80
2022/04/06 11:25:28;;;;;;;4.45;2.15;;;;;;;14.55;53.93;98807.97;1088108;54;20082;-80
2022/04/06 11:26:40;;;;;;;4.82;2.13;;;;;;;14.54;53.72;98805.50;1087780;54;20035;-80
2022/04/06 11:27:47;;;;;;;4.32;1.98;;;;;;;14.57;54.12;98811.31;1088119;54;20034;-80
2022/04/06 11:28:55;;;;;;;3.85;1.85;;;;;;;14.81;53.92;98807.28;1088573;39;20559;-81
2022/04/06 11:30:03;;;;;;;4.75;1.90;;;;;;;14.71;53.69;98809.53;1088145;54;20030;-80
2022/04/06 11:31:09;;;;;;;4.88;2.03;;;;;;;14.81;53.71;98803.75;1088116;54;20030;-80
2022/04/06 11:32:13;;;;;;;3.80;2.15;;;;;;;14.87;53.96;98802.09;1088126;54;20053;-80
2022/04/06 11:33:18;;;;;;;4.13;2.22;;;;;;;14.85;53.44;98805.00;1088108;54;20698;-80
2022/04/06 11:34:30;;;;;;;3.80;1.70;;;;;;;14.64;52.77;98800.56;1090751;47;20054;-80
2022/04/06 11:35:36;;;;;;;3.20;1.50;;;;;;;14.96;52.89;98809.81;1088105;54;20054;-80
2022/04/06 11:36:38;;;;;;;4.85;2.30;;;;;;;14.95;52.46;98807.28;1088153;54;20090;-79
2022/04/06 11:37:43;;;;;;;3.45;1.70;;;;;;;14.66;52.62;98799.38;1088168;54;20033;-81
2022/04/06 11:38:49;;;;;;;3.55;1.75;;;;;;;14.61;53.03;98791.03;1088161;54;20023;-79
2022/04/06 11:39:58;;;;;;;4.25;1.80;;;;;;;14.49;53.36;98793.47;1092129;39;20567;-81
2022/04/06 11:41:00;;;;;;;3.70;2.00;;;;;;;14.43;53.49;98799.66;1088224;54;20035;-80
2022/04/06 11:42:09;;;;;;;5.00;1.80;;;;;;;14.45;54.10;98797.59;1088123;54;20054;-79
2022/04/06 11:43:13;;;;;;;4.50;2.10;;;;;;;14.65;53.47;98795.00;1087794;54;20030;-79
2022/04/06 11:44:17;;;;;;;4.78;2.03;;;;;;;14.69;53.36;98795.44;1087619;54;20034;-80
2022/04/06 11:45:23;;;;;;;3.45;1.65;;;;;;;14.68;53.59;98791.09;1088191;54;20034;-80
2022/04/06 11:46:25;;;;;;;2.88;1.38;;;;;;;14.68;53.09;98787.59;1088148;54;20046;-79
2022/04/06 11:47:30;;;;;;;3.85;1.95;;;;;;;14.69;53.09;98784.69;1088098;54;20119;-81
2022/04/06 11:48:40;;;;;;;5.03;1.85;;;;;;;14.96;52.29;98792.81;1088056;54;20022;-79
2022/04/06 11:49:44;;;;;;;4.00;1.67;;;;;;;14.82;52.77;98782.03;1088175;54;20033;-80
2022/04/06 11:50:49;;;;;;;7.55;2.15;;;;;;;14.59;52.68;98787.72;1088091;54;20038;-80
2022/04/06 11:51:54;;;;;;;4.90;1.70;;;;;;;14.44;53.41;98785.19;1087988;54;20031;-79
2022/04/06 11:53:01;;;;;;;5.55;1.63;;;;;;;14.61;53.23;98774.91;1088622;39;20324;-80
2022/04/06 11:54:03;;;;;;;5.35;1.70;;;;;;;14.79;52.87;98781.59;1090906;39;20682;-80
2022/04/06 11:55:09;;;;;;;3.50;1.75;;;;;;;14.89;52.37;98778.53;1088075;54;20115;-80
2022/04/06 11:56:13;;;;;;;3.55;1.65;;;;;;;14.94;52.43;98773.34;1087714;54;20035;-80
2022/04/06 11:57:20;;;;;;;6.63;1.83;;;;;;;14.94;52.17;98778.72;1087701;54;20034;-79
2022/04/06 11:58:31;;;;;;;4.32;1.55;;;;;;;14.94;52.20;98774.19;1087615;54;20046;-80
2022/04/06 11:59:37;;;;;;;3.17;1.40;;;;;;;14.90;52.46;98772.13;1090105;31;20659;-80
2022/04/06 12:00:41;;;;;;;6.20;1.73;;;;;;;14.93;52.37;98769.84;1087678;54;20042;-80
2022/04/06 12:01:45;;;;;;;3.60;1.58;;;;;;;15.05;51.45;98772.75;1088022;39;20633;-80
2022/04/06 12:02:51;;;;;;;5.70;1.98;;;;;;;14.81;51.02;98775.00;1087638;54;20678;-80
2022/04/06 12:03:58;;;;;;;3.90;1.65;;;;;;;14.96;50.93;98756.00;1087723;54;20034;-80
2022/04/06 12:05:01;;;;;;;2.97;1.20;;;;;;;14.65;51.09;98764.56;1088154;54;20061;-80
2022/04/06 12:06:07;;;;;;;6.22;1.75;;;;;;;14.56;51.70;98765.78;1088500;54;20034;-80